リヤド の空港の天気 - METARとTAF

キング・ハーリド国際空港(リヤド) ( OERK / RUH ) - サウジアラビア リヤド
飛行場実況気象(Metar)
観測時間12/14 09:00 AST (12/14 06:00 UTC)
風向・風速東南東 3m/s
視程10km以上
天気現象
なし
気温19℃
湿度49%
気圧1025hPa
METAROERK 140600Z 12006KT CAVOK 19/08 Q1025 NOSIG
過去の天気等 Google飛行場航空写真 Wunderground天気予報

過去48時間のMETAR

飛行場予報(TAF)
発表時間: 12/14 08:00 AST (12/14 05:00 UTC)
予報対象時間: 14日9時 AST ~ 15日15時 AST
風向・風速東南東 6m/s
視程7000m
全天の4割程度の雲 雲底高度 1220m
全天の4割程度の雲 雲底高度 2440m
14日9時 AST ~ 14日21時 AST に一時的に
天気現象雷雨
少しの積乱雲 雲底高度 1070m
全天の8割程度の雲 雲底高度 1220m
TAF OERK 140500Z 1406/1512 12012KT 7000 SCT040 SCT080
TEMPO 1406/1418 TSRA FEW035CB BKN040